Time;durP1;ratioP1;P1;durP2;ratioP2;P2;SDS_P1;SDS_P2;PMS_P1;PMS_P2;Temp;Humidity;BMP_temperature;BMP_pressure;BME280_temperature;BME280_humidity;BME280_pressure;Samples;Min_cycle;Max_cycle;Signal;HPM_P1;HPM_P2
2023/12/08 00:01:21;;;;;;;41.38;26.75;;;;;;;;;;5047871;28;20045;-83
2023/12/08 00:03:47;;;;;;;41.42;24.80;;;;;;;;;;5049587;28;20045;-81
2023/12/08 00:06:13;;;;;;;39.22;24.15;;;;;;;;;;5067777;28;20689;-81
2023/12/08 00:08:39;;;;;;;42.33;24.35;;;;;;;;;;5083462;28;20041;-80
2023/12/08 00:11:06;;;;;;;41.78;24.67;;;;;;;;;;5071920;28;20036;-80
2023/12/08 00:13:32;;;;;;;41.78;24.55;;;;;;;;;;5037697;28;20177;-81
2023/12/08 00:15:58;;;;;;;40.88;25.00;;;;;;;;;;5049130;28;20111;-85
2023/12/08 00:18:24;;;;;;;44.22;27.42;;;;;;;;;;5066924;28;20041;-84
2023/12/08 00:20:50;;;;;;;42.85;26.40;;;;;;;;;;5034911;28;20139;-83
2023/12/08 00:23:17;;;;;;;43.25;25.75;;;;;;;;;;5064943;28;20040;-84
2023/12/08 00:25:43;;;;;;;36.33;24.27;;;;;;;;;;5053414;28;20102;-86
2023/12/08 00:28:09;;;;;;;45.38;27.08;;;;;;;;;;5079607;28;20036;-84
2023/12/08 00:30:36;;;;;;;45.63;26.92;;;;;;;;;;5068413;28;20542;-86
2023/12/08 00:33:04;;;;;;;44.83;26.75;;;;;;;;;;5049619;28;20435;-85
2023/12/08 00:35:30;;;;;;;44.15;27.58;;;;;;;;;;5070012;28;20051;-85
2023/12/08 00:37:57;;;;;;;41.85;26.58;;;;;;;;;;5059154;28;20039;-85
2023/12/08 00:40:23;;;;;;;45.75;27.63;;;;;;;;;;5062988;28;20040;-85
2023/12/08 00:42:49;;;;;;;41.38;25.73;;;;;;;;;;5062603;28;20049;-84
2023/12/08 00:45:15;;;;;;;41.38;25.20;;;;;;;;;;5035532;28;20048;-86
2023/12/08 00:47:41;;;;;;;40.40;26.30;;;;;;;;;;5020329;28;20037;-85
2023/12/08 00:50:08;;;;;;;42.70;24.63;;;;;;;;;;5064253;28;20123;-82
2023/12/08 00:52:34;;;;;;;48.38;26.45;;;;;;;;;;5054826;28;20169;-84
2023/12/08 00:55:00;;;;;;;43.88;25.67;;;;;;;;;;5063524;28;20037;-84
2023/12/08 00:57:27;;;;;;;38.50;24.70;;;;;;;;;;5066502;28;20047;-84
2023/12/08 00:59:54;;;;;;;38.08;24.65;;;;;;;;;;5062625;28;20053;-86
2023/12/08 01:02:20;;;;;;;41.47;24.10;;;;;;;;;;5027106;28;20048;-86
2023/12/08 01:04:46;;;;;;;38.83;22.30;;;;;;;;;;5049641;28;20052;-85
2023/12/08 01:07:12;;;;;;;38.17;24.23;;;;;;;;;;5039741;28;20032;-85
2023/12/08 01:09:38;;;;;;;40.33;23.58;;;;;;;;;;5052610;28;20688;-85
2023/12/08 01:12:04;;;;;;;39.90;24.33;;;;;;;;;;5069443;28;20063;-85
2023/12/08 01:14:30;;;;;;;42.58;22.90;;;;;;;;;;5064232;28;20048;-85
2023/12/08 01:16:57;;;;;;;37.47;23.95;;;;;;;;;;5083479;28;20044;-84
2023/12/08 01:19:24;;;;;;;38.22;23.20;;;;;;;;;;5081959;28;20507;-86
2023/12/08 01:21:50;;;;;;;35.92;22.88;;;;;;;;;;5030680;28;20523;-85
2023/12/08 01:24:16;;;;;;;35.20;22.60;;;;;;;;;;5041962;28;20044;-86
2023/12/08 01:26:43;;;;;;;43.83;26.30;;;;;;;;;;5065838;28;20464;-79
2023/12/08 01:29:10;;;;;;;38.47;22.15;;;;;;;;;;5053041;28;20768;-79
2023/12/08 01:31:36;;;;;;;36.15;24.02;;;;;;;;;;5048836;28;20056;-80
2023/12/08 01:34:02;;;;;;;40.20;27.33;;;;;;;;;;5034795;28;20036;-79
2023/12/08 01:36:28;;;;;;;40.80;24.05;;;;;;;;;;5051893;28;20037;-86
2023/12/08 01:38:54;;;;;;;39.50;25.20;;;;;;;;;;5050460;28;20101;-84
2023/12/08 01:41:20;;;;;;;39.85;25.48;;;;;;;;;;5055041;28;20079;-84
2023/12/08 01:43:47;;;;;;;37.70;24.30;;;;;;;;;;5054593;28;20045;-85
2023/12/08 01:46:15;;;;;;;40.97;22.50;;;;;;;;;;5061289;28;20113;-85
2023/12/08 01:48:41;;;;;;;39.00;22.67;;;;;;;;;;5058548;28;20064;-85
2023/12/08 01:51:08;;;;;;;38.55;21.40;;;;;;;;;;5062656;28;20067;-85
2023/12/08 01:53:34;;;;;;;37.92;23.50;;;;;;;;;;5035485;28;20043;-86
2023/12/08 01:56:00;;;;;;;40.65;22.70;;;;;;;;;;5056162;28;20052;-84
2023/12/08 01:58:26;;;;;;;36.83;23.52;;;;;;;;;;5036905;28;20105;-86
2023/12/08 02:00:53;;;;;;;40.90;23.08;;;;;;;;;;5037926;28;20059;-86
2023/12/08 02:03:20;;;;;;;38.10;23.17;;;;;;;;;;5052760;28;20433;-85
2023/12/08 02:05:49;;;;;;;36.25;22.05;;;;;;;;;;5033379;28;20037;-84
2023/12/08 02:08:15;;;;;;;38.03;22.92;;;;;;;;;;5067117;28;20082;-84
2023/12/08 02:10:42;;;;;;;38.65;21.08;;;;;;;;;;5061555;28;20036;-85
2023/12/08 02:13:08;;;;;;;36.67;22.98;;;;;;;;;;5017271;28;20043;-84
2023/12/08 02:15:34;;;;;;;32.13;20.38;;;;;;;;;;5059325;28;20040;-83
2023/12/08 02:18:02;;;;;;;34.03;21.48;;;;;;;;;;5049145;28;20492;-85
2023/12/08 02:20:28;;;;;;;31.63;19.75;;;;;;;;;;5049855;28;20469;-86
2023/12/08 02:22:54;;;;;;;31.23;21.17;;;;;;;;;;5064163;28;20036;-85
2023/12/08 02:25:20;;;;;;;35.80;20.58;;;;;;;;;;5018077;28;20774;-82
2023/12/08 02:27:46;;;;;;;33.80;20.85;;;;;;;;;;5037191;28;20075;-83
2023/12/08 02:30:13;;;;;;;30.58;19.70;;;;;;;;;;5061903;28;20408;-83
2023/12/08 02:32:50;;;;;;;33.17;20.00;;;;;;;;;;5039349;28;20041;-84
2023/12/08 02:35:19;;;;;;;28.65;18.42;;;;;;;;;;5043365;28;20048;-84
2023/12/08 02:37:46;;;;;;;30.27;18.50;;;;;;;;;;5051143;28;20059;-84
2023/12/08 02:40:12;;;;;;;28.92;19.08;;;;;;;;;;5067738;28;20407;-83
2023/12/08 02:42:39;;;;;;;31.83;18.15;;;;;;;;;;5062963;28;20044;-85
2023/12/08 02:45:05;;;;;;;31.27;19.83;;;;;;;;;;5058907;28;20055;-83
2023/12/08 02:47:31;;;;;;;29.73;19.15;;;;;;;;;;5080330;28;20040;-80
2023/12/08 02:49:57;;;;;;;29.02;18.90;;;;;;;;;;5061642;28;20031;-81
2023/12/08 02:52:23;;;;;;;31.08;19.35;;;;;;;;;;5039143;28;20515;-81
2023/12/08 02:54:49;;;;;;;27.63;18.20;;;;;;;;;;5043143;28;20044;-81
2023/12/08 02:57:16;;;;;;;25.27;16.95;;;;;;;;;;5066252;28;20467;-81
2023/12/08 02:59:42;;;;;;;30.17;18.42;;;;;;;;;;5052383;28;20131;-82
2023/12/08 03:02:08;;;;;;;29.70;18.60;;;;;;;;;;5021352;28;20048;-80
2023/12/08 03:04:34;;;;;;;31.00;18.88;;;;;;;;;;5066735;28;20041;-81
2023/12/08 03:07:00;;;;;;;27.83;17.63;;;;;;;;;;5052924;28;20128;-81
2023/12/08 03:09:26;;;;;;;25.92;17.65;;;;;;;;;;5058372;28;20090;-80
2023/12/08 03:11:52;;;;;;;26.10;17.63;;;;;;;;;;5017038;28;20033;-80
2023/12/08 03:14:18;;;;;;;28.02;17.13;;;;;;;;;;5054883;28;20036;-81
2023/12/08 03:16:46;;;;;;;28.27;17.90;;;;;;;;;;5048190;28;20395;-80
2023/12/08 03:19:12;;;;;;;29.00;18.08;;;;;;;;;;5050144;28;20040;-80
2023/12/08 03:21:38;;;;;;;29.00;17.80;;;;;;;;;;5065250;28;20666;-81
2023/12/08 03:24:05;;;;;;;27.15;16.42;;;;;;;;;;5038045;28;20032;-80
2023/12/08 03:26:31;;;;;;;31.02;18.42;;;;;;;;;;5054745;28;20098;-81
2023/12/08 03:28:57;;;;;;;32.45;18.92;;;;;;;;;;5054099;28;20041;-81
2023/12/08 03:31:24;;;;;;;31.52;20.27;;;;;;;;;;5066169;28;20041;-81
2023/12/08 03:33:50;;;;;;;27.77;19.42;;;;;;;;;;5051707;28;20063;-82
2023/12/08 03:36:16;;;;;;;27.90;18.17;;;;;;;;;;5053742;28;20066;-81
2023/12/08 03:38:42;;;;;;;28.20;18.85;;;;;;;;;;5054594;28;21438;-80
2023/12/08 03:41:08;;;;;;;29.80;19.17;;;;;;;;;;5059838;28;20045;-80
2023/12/08 03:43:34;;;;;;;30.85;17.67;;;;;;;;;;5053882;28;20089;-80
2023/12/08 03:46:00;;;;;;;31.42;19.17;;;;;;;;;;5066307;28;20041;-82
2023/12/08 03:48:27;;;;;;;27.75;19.15;;;;;;;;;;5054204;28;20480;-85
2023/12/08 03:50:53;;;;;;;31.67;20.50;;;;;;;;;;5067800;28;20036;-85
2023/12/08 03:53:19;;;;;;;27.42;19.48;;;;;;;;;;5044655;28;20132;-85
2023/12/08 03:55:45;;;;;;;32.80;20.08;;;;;;;;;;5028214;28;20593;-85
2023/12/08 03:58:11;;;;;;;29.77;18.58;;;;;;;;;;5083501;28;20439;-80
2023/12/08 04:00:37;;;;;;;27.80;19.45;;;;;;;;;;5038173;28;20059;-78
2023/12/08 04:03:03;;;;;;;28.15;18.02;;;;;;;;;;5047426;28;20033;-79
2023/12/08 04:05:29;;;;;;;26.08;18.52;;;;;;;;;;5056008;28;20045;-79
2023/12/08 04:07:55;;;;;;;31.05;19.55;;;;;;;;;;5046803;28;20032;-78
2023/12/08 04:10:21;;;;;;;26.45;18.33;;;;;;;;;;5058606;28;20052;-79
2023/12/08 04:12:48;;;;;;;27.27;19.52;;;;;;;;;;5037964;28;20037;-81
2023/12/08 04:15:14;;;;;;;25.33;19.02;;;;;;;;;;5070063;28;20051;-79
2023/12/08 04:17:40;;;;;;;34.58;18.23;;;;;;;;;;5043262;28;20075;-80
2023/12/08 04:20:06;;;;;;;26.45;18.75;;;;;;;;;;5053438;28;20085;-80
2023/12/08 04:22:32;;;;;;;26.73;18.23;;;;;;;;;;5053703;28;20044;-80
2023/12/08 04:24:58;;;;;;;27.42;18.17;;;;;;;;;;5051382;28;20041;-79
2023/12/08 04:27:24;;;;;;;30.52;18.40;;;;;;;;;;5057017;28;20048;-82
2023/12/08 04:29:50;;;;;;;26.50;18.05;;;;;;;;;;5055858;28;20223;-81
2023/12/08 04:32:16;;;;;;;25.90;17.63;;;;;;;;;;5036561;28;20062;-81
2023/12/08 04:34:42;;;;;;;24.17;17.40;;;;;;;;;;5053722;28;20090;-79
2023/12/08 04:37:08;;;;;;;28.92;17.52;;;;;;;;;;5073152;28;20036;-79
2023/12/08 04:39:35;;;;;;;25.73;18.58;;;;;;;;;;5050764;28;20048;-81
2023/12/08 04:42:01;;;;;;;26.38;18.63;;;;;;;;;;5027532;28;20040;-79
2023/12/08 04:44:27;;;;;;;30.67;18.05;;;;;;;;;;5049021;28;20053;-79
2023/12/08 04:46:53;;;;;;;25.15;19.10;;;;;;;;;;5018525;28;20132;-79
2023/12/08 04:49:19;;;;;;;24.15;17.45;;;;;;;;;;5052839;28;20045;-79
2023/12/08 04:51:45;;;;;;;29.30;16.85;;;;;;;;;;5032355;28;20446;-79
2023/12/08 04:54:11;;;;;;;31.23;18.58;;;;;;;;;;5035294;28;20079;-79
2023/12/08 04:56:37;;;;;;;23.20;16.40;;;;;;;;;;5030783;28;20548;-85
2023/12/08 04:59:03;;;;;;;21.25;15.43;;;;;;;;;;5034242;28;20045;-86
2023/12/08 05:01:29;;;;;;;23.17;16.95;;;;;;;;;;5045109;28;20037;-85
2023/12/08 05:03:55;;;;;;;24.77;16.63;;;;;;;;;;5032588;28;20069;-86
2023/12/08 05:06:24;;;;;;;26.15;17.05;;;;;;;;;;5053522;28;20041;-86
2023/12/08 05:08:50;;;;;;;23.00;15.80;;;;;;;;;;5021318;28;20127;-80
2023/12/08 05:11:16;;;;;;;31.30;18.55;;;;;;;;;;5038173;28;20036;-80
2023/12/08 05:13:42;;;;;;;34.00;19.67;;;;;;;;;;5046388;28;20036;-79
2023/12/08 05:16:14;;;;;;;36.65;20.20;;;;;;;;;;5034934;28;20076;-79
2023/12/08 05:18:40;;;;;;;29.60;18.80;;;;;;;;;;5049054;28;20053;-79
2023/12/08 05:21:07;;;;;;;28.92;19.85;;;;;;;;;;5034042;28;20531;-79
2023/12/08 05:23:33;;;;;;;29.50;19.13;;;;;;;;;;5031271;28;20060;-77
2023/12/08 05:25:59;;;;;;;29.52;18.77;;;;;;;;;;5020103;28;20032;-77
2023/12/08 05:28:25;;;;;;;30.98;19.40;;;;;;;;;;5021584;28;20032;-79
2023/12/08 05:30:53;;;;;;;39.40;19.00;;;;;;;;;;5044859;28;20131;-78
2023/12/08 05:33:19;;;;;;;28.75;20.67;;;;;;;;;;5052507;28;20071;-78
2023/12/08 05:35:45;;;;;;;32.40;19.92;;;;;;;;;;5015297;28;20782;-77
2023/12/08 05:38:11;;;;;;;32.83;20.45;;;;;;;;;;5049708;28;20045;-77
2023/12/08 05:40:37;;;;;;;38.17;21.25;;;;;;;;;;5021084;28;20049;-77
2023/12/08 05:43:04;;;;;;;35.00;19.52;;;;;;;;;;5022850;28;20037;-77
2023/12/08 05:45:30;;;;;;;36.95;21.33;;;;;;;;;;5023920;28;20061;-79
2023/12/08 05:47:56;;;;;;;37.80;21.88;;;;;;;;;;5045327;28;20040;-77
2023/12/08 05:50:22;;;;;;;38.35;22.45;;;;;;;;;;5026771;28;20127;-76
2023/12/08 05:52:48;;;;;;;39.60;21.52;;;;;;;;;;5024674;28;20033;-77
2023/12/08 05:55:14;;;;;;;40.28;23.95;;;;;;;;;;5026377;28;20472;-77
2023/12/08 05:57:40;;;;;;;42.45;21.23;;;;;;;;;;5024709;28;20036;-78
2023/12/08 06:00:10;;;;;;;41.10;22.33;;;;;;;;;;5037926;28;20041;-79
2023/12/08 06:02:36;;;;;;;40.65;22.15;;;;;;;;;;5030830;28;20052;-78
2023/12/08 06:05:02;;;;;;;40.95;20.88;;;;;;;;;;5029669;28;20044;-77
2023/12/08 06:07:28;;;;;;;43.25;23.23;;;;;;;;;;5029841;28;20048;-77
2023/12/08 06:09:54;;;;;;;44.72;23.25;;;;;;;;;;5032074;28;20068;-77
2023/12/08 06:12:20;;;;;;;41.72;22.77;;;;;;;;;;5060068;28;20072;-77
2023/12/08 06:14:46;;;;;;;43.75;23.30;;;;;;;;;;5041432;28;20048;-76
2023/12/08 06:17:12;;;;;;;52.67;24.85;;;;;;;;;;5030661;28;20105;-82
2023/12/08 06:19:39;;;;;;;51.35;28.10;;;;;;;;;;5028348;28;20055;-82
2023/12/08 06:22:05;;;;;;;45.90;25.90;;;;;;;;;;5043624;28;20171;-82
2023/12/08 06:24:31;;;;;;;48.42;27.42;;;;;;;;;;5031712;28;20045;-82
2023/12/08 06:26:57;;;;;;;45.80;27.33;;;;;;;;;;5045792;28;20040;-83
2023/12/08 06:29:23;;;;;;;46.38;26.27;;;;;;;;;;5025002;28;20037;-83
2023/12/08 06:31:49;;;;;;;52.33;27.00;;;;;;;;;;5042465;28;20041;-81
2023/12/08 06:34:15;;;;;;;49.38;26.17;;;;;;;;;;5040051;28;20047;-83
2023/12/08 06:36:45;;;;;;;46.53;27.23;;;;;;;;;;5035775;28;20040;-84
2023/12/08 06:39:20;;;;;;;45.15;25.92;;;;;;;;;;5051567;28;20123;-85
2023/12/08 06:41:47;;;;;;;49.03;26.17;;;;;;;;;;5041979;28;20055;-86
2023/12/08 06:44:13;;;;;;;47.95;26.08;;;;;;;;;;5048825;28;20053;-85
2023/12/08 06:46:39;;;;;;;48.75;27.05;;;;;;;;;;5055082;28;20037;-83
2023/12/08 06:49:05;;;;;;;54.10;26.88;;;;;;;;;;5053784;28;20160;-84
2023/12/08 06:51:34;;;;;;;50.70;27.15;;;;;;;;;;5033799;28;20033;-84
2023/12/08 06:54:01;;;;;;;54.80;26.63;;;;;;;;;;5047633;28;20523;-81
2023/12/08 06:56:28;;;;;;;54.53;30.25;;;;;;;;;;5031603;28;20060;-84
2023/12/08 06:58:54;;;;;;;53.03;27.67;;;;;;;;;;5035729;28;20040;-82
2023/12/08 07:01:20;;;;;;;53.53;27.05;;;;;;;;;;5016690;28;20041;-84
2023/12/08 07:03:47;;;;;;;66.20;28.42;;;;;;;;;;5033916;28;20113;-82
2023/12/08 07:06:13;;;;;;;55.00;27.85;;;;;;;;;;5013027;28;20048;-84
2023/12/08 07:08:39;;;;;;;60.70;29.00;;;;;;;;;;5046151;28;20117;-84
2023/12/08 07:11:05;;;;;;;61.28;28.63;;;;;;;;;;5049698;28;20044;-83
2023/12/08 07:13:31;;;;;;;58.33;28.52;;;;;;;;;;5043957;28;20067;-82
2023/12/08 07:15:57;;;;;;;60.05;28.80;;;;;;;;;;5047553;28;20044;-82
2023/12/08 07:18:23;;;;;;;60.90;29.00;;;;;;;;;;5027764;28;20075;-81
2023/12/08 07:20:50;;;;;;;62.30;29.10;;;;;;;;;;5029622;28;20082;-83
2023/12/08 07:23:16;;;;;;;60.78;28.00;;;;;;;;;;5043907;28;20151;-84
2023/12/08 07:25:42;;;;;;;61.08;30.95;;;;;;;;;;5046351;28;20045;-83
2023/12/08 07:28:08;;;;;;;59.80;28.52;;;;;;;;;;5029639;28;20049;-78
2023/12/08 07:30:34;;;;;;;56.03;26.98;;;;;;;;;;5011895;28;20033;-76
2023/12/08 07:33:03;;;;;;;56.72;28.35;;;;;;;;;;5045982;28;20491;-77
2023/12/08 07:35:29;;;;;;;59.70;29.30;;;;;;;;;;5028441;28;20071;-77
2023/12/08 07:37:55;;;;;;;58.50;27.85;;;;;;;;;;5023904;28;20515;-77
2023/12/08 07:40:21;;;;;;;64.45;30.02;;;;;;;;;;5030919;28;20045;-77
2023/12/08 07:42:48;;;;;;;62.63;29.58;;;;;;;;;;5050077;28;20044;-76
2023/12/08 07:45:14;;;;;;;58.03;27.65;;;;;;;;;;5050873;28;20057;-79
2023/12/08 07:47:40;;;;;;;62.70;28.90;;;;;;;;;;5032458;28;20033;-77
2023/12/08 07:50:06;;;;;;;61.35;29.30;;;;;;;;;;5049672;28;20037;-78
2023/12/08 07:52:33;;;;;;;64.65;32.47;;;;;;;;;;5042398;28;20122;-77
2023/12/08 07:54:59;;;;;;;62.90;28.38;;;;;;;;;;5038595;28;20084;-78
2023/12/08 07:57:25;;;;;;;61.55;28.95;;;;;;;;;;5054712;28;20036;-77
2023/12/08 07:59:52;;;;;;;56.92;25.25;;;;;;;;;;5055160;28;20048;-85
2023/12/08 08:02:21;;;;;;;64.80;26.73;;;;;;;;;;5050982;28;20132;-84
2023/12/08 08:04:47;;;;;;;59.72;28.25;;;;;;;;;;5017751;28;20055;-85
2023/12/08 08:07:13;;;;;;;62.22;27.98;;;;;;;;;;5036033;28;20403;-85
2023/12/08 08:09:39;;;;;;;53.85;26.88;;;;;;;;;;5021058;28;20041;-84
2023/12/08 08:12:05;;;;;;;57.90;28.60;;;;;;;;;;5046807;28;20041;-85
2023/12/08 08:14:31;;;;;;;63.78;29.55;;;;;;;;;;5041129;28;20045;-85
2023/12/08 08:16:57;;;;;;;58.42;27.73;;;;;;;;;;5048265;28;21469;-84
2023/12/08 08:19:23;;;;;;;54.42;27.85;;;;;;;;;;5017524;28;20047;-84
2023/12/08 08:21:49;;;;;;;58.00;26.65;;;;;;;;;;5034604;28;20040;-85
2023/12/08 08:24:15;;;;;;;53.42;26.17;;;;;;;;;;5020183;28;20067;-84
2023/12/08 08:26:45;;;;;;;54.28;26.25;;;;;;;;;;5018127;28;20519;-84
2023/12/08 08:29:11;;;;;;;59.10;27.73;;;;;;;;;;5034833;28;20149;-85
2023/12/08 08:31:37;;;;;;;57.78;27.55;;;;;;;;;;5052711;28;20166;-85
2023/12/08 08:34:06;;;;;;;60.88;29.30;;;;;;;;;;5072826;28;20045;-85
2023/12/08 08:36:32;;;;;;;53.33;25.27;;;;;;;;;;5051037;28;20038;-86
2023/12/08 08:38:58;;;;;;;59.33;28.35;;;;;;;;;;5047981;28;20033;-87
2023/12/08 08:41:24;;;;;;;53.28;27.08;;;;;;;;;;5046794;28;20062;-84
2023/12/08 08:43:51;;;;;;;61.35;28.80;;;;;;;;;;5038754;28;20739;-85
2023/12/08 08:46:17;;;;;;;61.38;26.38;;;;;;;;;;5038702;28;20052;-84
2023/12/08 08:48:43;;;;;;;55.58;26.80;;;;;;;;;;5053929;28;20047;-85
2023/12/08 08:51:10;;;;;;;54.55;27.58;;;;;;;;;;5041690;28;20032;-86
2023/12/08 08:53:36;;;;;;;60.78;28.08;;;;;;;;;;5042830;28;20519;-86
2023/12/08 08:56:03;;;;;;;55.28;26.33;;;;;;;;;;5061950;28;20047;-86
2023/12/08 08:58:29;;;;;;;53.47;27.20;;;;;;;;;;5083905;28;20439;-85
2023/12/08 09:00:55;;;;;;;55.38;25.63;;;;;;;;;;5052200;28;20159;-84
2023/12/08 09:03:21;;;;;;;50.13;25.63;;;;;;;;;;5042485;28;20036;-85
2023/12/08 09:05:47;;;;;;;57.50;26.95;;;;;;;;;;5048507;28;20048;-84
2023/12/08 09:08:17;;;;;;;53.22;26.17;;;;;;;;;;5047758;28;20044;-86
2023/12/08 09:10:45;;;;;;;50.13;27.15;;;;;;;;;;5031685;28;20045;-86
2023/12/08 09:13:11;;;;;;;54.20;26.80;;;;;;;;;;5048549;28;20047;-84
2023/12/08 09:15:37;;;;;;;54.78;25.85;;;;;;;;;;5052881;28;20040;-85
2023/12/08 09:18:03;;;;;;;51.92;26.00;;;;;;;;;;5035571;28;20048;-84
2023/12/08 09:20:29;;;;;;;52.70;26.60;;;;;;;;;;5033810;28;20041;-85
2023/12/08 09:22:56;;;;;;;48.05;23.42;;;;;;;;;;5066864;28;20032;-85
2023/12/08 09:25:22;;;;;;;47.75;24.85;;;;;;;;;;5038729;28;20043;-85
2023/12/08 09:27:48;;;;;;;44.00;24.83;;;;;;;;;;5036736;28;20066;-92
2023/12/08 09:30:14;;;;;;;51.60;25.80;;;;;;;;;;5083845;28;20677;-85
2023/12/08 09:32:40;;;;;;;46.80;24.55;;;;;;;;;;5059838;28;20036;-85
2023/12/08 09:35:06;;;;;;;44.63;23.48;;;;;;;;;;5049529;28;20423;-85
2023/12/08 09:37:33;;;;;;;51.15;26.90;;;;;;;;;;5053563;28;20506;-83
2023/12/08 09:39:59;;;;;;;48.42;25.85;;;;;;;;;;5064777;28;20079;-84
2023/12/08 09:42:36;;;;;;;47.10;26.27;;;;;;;;;;5040862;28;20488;-84
2023/12/08 09:45:06;;;;;;;55.97;28.13;;;;;;;;;;5053385;28;20411;-83
2023/12/08 09:47:35;;;;;;;51.22;26.55;;;;;;;;;;5062421;28;20090;-87
2023/12/08 09:50:02;;;;;;;53.70;26.48;;;;;;;;;;5068381;28;20410;-90
2023/12/08 09:52:29;;;;;;;49.03;27.75;;;;;;;;;;5050850;28;20029;-90
2023/12/08 09:54:56;;;;;;;47.45;24.42;;;;;;;;;;5074059;28;20047;-91
2023/12/08 09:57:24;;;;;;;54.38;26.15;;;;;;;;;;5040585;28;20044;-89
2023/12/08 09:59:51;;;;;;;49.83;25.42;;;;;;;;;;5043855;28;20056;-92
2023/12/08 10:02:18;;;;;;;46.33;24.88;;;;;;;;;;5067472;28;20055;-90
2023/12/08 10:04:44;;;;;;;50.63;25.08;;;;;;;;;;5050571;28;20483;-91
2023/12/08 10:07:11;;;;;;;48.78;23.92;;;;;;;;;;5048853;28;20033;-92
2023/12/08 10:09:37;;;;;;;48.95;24.95;;;;;;;;;;5051019;28;20045;-91
2023/12/08 10:12:04;;;;;;;50.10;27.00;;;;;;;;;;5031675;28;20040;-91
2023/12/08 10:14:31;;;;;;;48.72;24.45;;;;;;;;;;5034802;28;20055;-91
2023/12/08 10:16:57;;;;;;;49.88;24.48;;;;;;;;;;5034897;28;20159;-92
2023/12/08 10:19:24;;;;;;;55.38;26.13;;;;;;;;;;5066989;28;21988;-87
2023/12/08 10:22:00;;;;;;;51.75;25.67;;;;;;;;;;5057980;28;20040;-92
2023/12/08 10:24:30;;;;;;;52.42;27.63;;;;;;;;;;5055727;28;20052;-89
2023/12/08 10:26:59;;;;;;;53.80;28.20;;;;;;;;;;5059377;28;20498;-79
2023/12/08 10:29:32;;;;;;;53.50;26.75;;;;;;;;;;5045177;28;20047;-79
2023/12/08 10:31:59;;;;;;;53.80;28.70;;;;;;;;;;5064823;28;20037;-80
2023/12/08 10:34:25;;;;;;;49.83;28.02;;;;;;;;;;5052750;28;20032;-79
2023/12/08 10:36:55;;;;;;;51.33;29.08;;;;;;;;;;5067481;28;20032;-79
2023/12/08 10:39:22;;;;;;;52.15;27.77;;;;;;;;;;5035337;28;20179;-79
2023/12/08 10:41:52;;;;;;;54.80;28.58;;;;;;;;;;5048835;28;20040;-80
2023/12/08 10:44:22;;;;;;;50.28;28.15;;;;;;;;;;5053053;28;20044;-80
2023/12/08 10:46:49;;;;;;;58.80;28.67;;;;;;;;;;5048292;28;20053;-79
2023/12/08 10:49:21;;;;;;;50.15;28.20;;;;;;;;;;5055673;28;20036;-78
2023/12/08 10:51:48;;;;;;;51.60;27.63;;;;;;;;;;5023670;28;20056;-80
2023/12/08 10:54:16;;;;;;;54.05;29.75;;;;;;;;;;5036244;28;20038;-80
2023/12/08 10:56:42;;;;;;;50.78;29.65;;;;;;;;;;5048495;28;20051;-80
2023/12/08 10:59:09;;;;;;;51.22;28.20;;;;;;;;;;5039513;28;21349;-78
2023/12/08 11:01:36;;;;;;;50.38;28.92;;;;;;;;;;5050149;28;20048;-78
2023/12/08 11:04:04;;;;;;;54.03;28.83;;;;;;;;;;5072407;28;20037;-79
2023/12/08 11:06:33;;;;;;;55.33;29.20;;;;;;;;;;5054581;28;20047;-79
2023/12/08 11:09:06;;;;;;;53.78;28.83;;;;;;;;;;5059697;28;20045;-78
2023/12/08 11:11:32;;;;;;;50.22;27.35;;;;;;;;;;5090012;28;20065;-79
2023/12/08 11:14:07;;;;;;;50.88;26.67;;;;;;;;;;5050148;28;20048;-79
2023/12/08 11:16:46;;;;;;;51.35;26.75;;;;;;;;;;5043381;28;20048;-79
2023/12/08 11:19:17;;;;;;;53.08;28.38;;;;;;;;;;5073670;28;20037;-79
2023/12/08 11:21:43;;;;;;;57.05;29.42;;;;;;;;;;5069644;28;20041;-78
2023/12/08 11:24:09;;;;;;;53.97;29.30;;;;;;;;;;5070073;28;20046;-77
2023/12/08 11:26:38;;;;;;;54.35;30.20;;;;;;;;;;5038610;28;20496;-79
2023/12/08 11:29:23;;;;;;;60.58;29.45;;;;;;;;;;5045316;28;20062;-78
2023/12/08 11:31:52;;;;;;;59.78;32.42;;;;;;;;;;5060049;28;20179;-78
2023/12/08 11:34:29;;;;;;;58.17;29.25;;;;;;;;;;5067805;28;20044;-78
2023/12/08 11:36:55;;;;;;;63.50;31.55;;;;;;;;;;5037320;28;20044;-78
2023/12/08 11:39:35;;;;;;;55.20;30.63;;;;;;;;;;5038191;28;20473;-78
2023/12/08 11:42:05;;;;;;;62.20;30.73;;;;;;;;;;5061436;28;20044;-77
2023/12/08 11:44:35;;;;;;;65.15;30.58;;;;;;;;;;5057979;28;20056;-77
2023/12/08 11:47:01;;;;;;;62.58;32.08;;;;;;;;;;5045367;28;20067;-77
2023/12/08 11:49:27;;;;;;;56.90;31.23;;;;;;;;;;5029350;28;20032;-77
2023/12/08 11:52:06;;;;;;;60.70;30.15;;;;;;;;;;5042312;28;20036;-77
2023/12/08 11:54:51;;;;;;;61.33;30.92;;;;;;;;;;5072858;28;20124;-77
2023/12/08 11:57:20;;;;;;;58.20;30.95;;;;;;;;;;5051935;28;20069;-77
2023/12/08 11:59:46;;;;;;;54.00;29.05;;;;;;;;;;5074751;28;20040;-77
2023/12/08 12:02:12;;;;;;;61.25;32.70;;;;;;;;;;5055035;28;20044;-77
2023/12/08 12:04:38;;;;;;;63.85;31.35;;;;;;;;;;5080158;28;20127;-77
2023/12/08 12:07:08;;;;;;;84.93;41.13;;;;;;;;;;5055210;28;20036;-77
2023/12/08 12:09:34;;;;;;;71.85;35.75;;;;;;;;;;5054728;28;20525;-77
2023/12/08 12:12:05;;;;;;;99.68;51.08;;;;;;;;;;5042828;28;20047;-78
2023/12/08 12:14:31;;;;;;;80.78;40.88;;;;;;;;;;5050294;28;20032;-78
2023/12/08 12:16:58;;;;;;;83.93;42.30;;;;;;;;;;5066209;28;20040;-77
2023/12/08 12:19:24;;;;;;;95.45;50.00;;;;;;;;;;5047822;28;20074;-78
2023/12/08 12:21:50;;;;;;;61.92;31.13;;;;;;;;;;5027571;28;20051;-79
2023/12/08 12:24:16;;;;;;;68.72;33.20;;;;;;;;;;5052257;28;20089;-77
2023/12/08 12:26:43;;;;;;;65.50;32.45;;;;;;;;;;5024898;28;20043;-77
2023/12/08 12:29:09;;;;;;;62.25;27.67;;;;;;;;;;5055093;28;20159;-78
2023/12/08 12:31:35;;;;;;;72.50;37.55;;;;;;;;;;5073882;28;20048;-77
2023/12/08 12:34:01;;;;;;;88.88;43.58;;;;;;;;;;5039204;28;20036;-77
2023/12/08 12:36:28;;;;;;;69.30;32.60;;;;;;;;;;5082621;28;20518;-77
2023/12/08 12:38:54;;;;;;;74.53;34.92;;;;;;;;;;5042342;28;20056;-77
2023/12/08 12:41:24;;;;;;;68.35;32.53;;;;;;;;;;5069295;28;20127;-78
2023/12/08 12:43:57;;;;;;;71.38;35.13;;;;;;;;;;5041192;28;20045;-78
2023/12/08 12:46:25;;;;;;;65.72;32.20;;;;;;;;;;5077374;28;20063;-78
2023/12/08 12:48:53;;;;;;;74.05;33.55;;;;;;;;;;5068725;28;20037;-77
2023/12/08 12:51:35;;;;;;;68.50;28.83;;;;;;;;;;5057752;28;20051;-77
2023/12/08 12:54:03;;;;;;;72.03;31.98;;;;;;;;;;5052007;28;20086;-77
2023/12/08 12:56:30;;;;;;;65.72;29.98;;;;;;;;;;5042409;28;20048;-78
2023/12/08 12:59:03;;;;;;;70.20;29.42;;;;;;;;;;5060248;28;20041;-77
2023/12/08 13:01:31;;;;;;;77.80;30.80;;;;;;;;;;5054915;28;20557;-77
2023/12/08 13:03:57;;;;;;;85.25;31.20;;;;;;;;;;5039405;28;20047;-78
2023/12/08 13:06:31;;;;;;;108.88;45.85;;;;;;;;;;5041371;28;20037;-78
2023/12/08 13:08:58;;;;;;;84.28;34.20;;;;;;;;;;5061528;28;20040;-78
2023/12/08 13:11:24;;;;;;;103.15;42.25;;;;;;;;;;5039797;28;20033;-77
2023/12/08 13:13:50;;;;;;;84.45;34.60;;;;;;;;;;5046787;28;20040;-77
2023/12/08 13:16:16;;;;;;;99.78;38.42;;;;;;;;;;5068911;28;20546;-77
2023/12/08 13:18:49;;;;;;;90.70;35.20;;;;;;;;;;5045509;28;20092;-78
2023/12/08 13:21:16;;;;;;;92.78;37.58;;;;;;;;;;5033636;28;20384;-77
2023/12/08 13:23:43;;;;;;;78.60;32.00;;;;;;;;;;5054595;28;20071;-77
2023/12/08 13:26:09;;;;;;;91.10;33.45;;;;;;;;;;5060543;28;20037;-78
2023/12/08 13:28:35;;;;;;;93.40;37.25;;;;;;;;;;5072154;28;20040;-78
2023/12/08 13:31:01;;;;;;;101.47;36.28;;;;;;;;;;5053911;28;20177;-76
2023/12/08 13:33:27;;;;;;;103.28;36.08;;;;;;;;;;5038374;28;20377;-79
2023/12/08 13:35:53;;;;;;;84.57;32.20;;;;;;;;;;5055411;28;20087;-78
2023/12/08 13:38:20;;;;;;;95.60;33.13;;;;;;;;;;5057284;28;20077;-78
2023/12/08 13:40:46;;;;;;;108.05;37.65;;;;;;;;;;5054968;28;20163;-78
2023/12/08 13:43:12;;;;;;;97.05;34.90;;;;;;;;;;5035333;28;20047;-78
2023/12/08 13:45:39;;;;;;;99.13;33.38;;;;;;;;;;5071485;28;20052;-78
2023/12/08 13:48:05;;;;;;;107.63;38.35;;;;;;;;;;5059307;28;20128;-79
2023/12/08 13:50:31;;;;;;;112.50;38.65;;;;;;;;;;5052566;28;20028;-78
2023/12/08 13:52:58;;;;;;;125.90;38.83;;;;;;;;;;5047172;28;20075;-78
2023/12/08 13:55:24;;;;;;;121.75;35.90;;;;;;;;;;5053119;28;20449;-78
2023/12/08 13:57:51;;;;;;;121.90;35.67;;;;;;;;;;5067281;28;20041;-87
2023/12/08 14:00:17;;;;;;;108.90;34.70;;;;;;;;;;5035140;28;20598;-87
2023/12/08 14:02:44;;;;;;;120.35;36.78;;;;;;;;;;5064445;28;20036;-88
2023/12/08 14:05:13;;;;;;;96.72;32.42;;;;;;;;;;5077631;28;20044;-84
2023/12/08 14:07:39;;;;;;;127.03;39.15;;;;;;;;;;5032507;28;20032;-83
2023/12/08 14:10:07;;;;;;;122.43;34.55;;;;;;;;;;5037554;28;20127;-83
2023/12/08 14:12:33;;;;;;;110.00;34.40;;;;;;;;;;5040655;28;20047;-84
2023/12/08 14:14:59;;;;;;;137.30;38.33;;;;;;;;;;5038616;28;20052;-84